King of Scandinavia — OVOL2 — position and weather

sailwx.info

Track history (hours):
 
Tides and Currents Weather Stations Pressure Air Temp Water Temp Dewpoint Dewpoint Depression Visibility Wind Speed Wind Dir Waves Ship Positions

King of Scandinavia

Ship's website: http://www.dfds.co.uk/DSW/EN/OnBoard/na/KING.htm

Last reported at 2019-Sep-21 00:04 UTC. Time now 2019-Sep-21 00:49 UTC.
Position N 53°54' E 001°25'.

Length 166 m; beam 27.6 m; draft 6.2 m.

Type: Ship. MMSI: 220449000.

Date/timePositionNaut miles runAvg speedWind from/ knotsBaromVisibWave heightAir tempDewpointWater temp
2019-Sep-21 00:04N 53°54' E 001°25'315.9
2019-Sep-20 23:52N 53°52' E 001°30'615.7
2019-Sep-20 23:30N 53°49' E 001°37'1115.4
2019-Sep-20 22:47N 53°44' E 001°55'515.7
2019-Sep-20 22:28N 53°42' E 002°02'915.9
2019-Sep-20 21:54N 53°38' E 002°15'715.8
2019-Sep-20 21:28N 53°33' E 002°24'1316.3
2019-Sep-20 20:40N 53°25' E 002°41'516.8
2019-Sep-20 20:23N 53°22' E 002°47'717.0
2019-Sep-20 19:58N 53°17' E 002°56'1217.1
2019-Sep-20 19:14N 53°09' E 003°12'1317.3
2019-Sep-20 18:29N 53°01' E 003°29'817.0
2019-Sep-20 18:00N 52°56' E 003°40'1216.8
2019-Sep-20 17:18N 52°49' E 003°55'516.9
2019-Sep-20 17:00N 52°45' E 004°00'1216.9
2019-Sep-20 16:19N 52°37' E 004°14'516.6
2019-Sep-20 16:00N 52°34' E 004°21'816.3
2019-Sep-20 15:30N 52°29' E 004°31'3 5.2
2019-Sep-20 15:00N 52°28' E 004°35'0 0.0
2019-Sep-20 14:29N 52°28' E 004°35'0 0.0
2019-Sep-20 13:59N 52°28' E 004°35'0 0.0
2019-Sep-20 13:29N 52°28' E 004°35'0 0.0
2019-Sep-20 12:59N 52°28' E 004°35'0 0.0
2019-Sep-20 12:29N 52°28' E 004°35'0 0.0
2019-Sep-20 11:59N 52°28' E 004°35'0 0.0
2019-Sep-20 11:29N 52°28' E 004°35'0 0.0
2019-Sep-20 10:59N 52°28' E 004°35'0 0.0
2019-Sep-20 10:30N 52°28' E 004°35'0 0.0
2019-Sep-20 09:56N 52°28' E 004°35'0 0.0
2019-Sep-20 09:30N 52°28' E 004°35'0 0.0
2019-Sep-20 08:59N 52°28' E 004°35'0 0.0
2019-Sep-20 08:27N 52°28' E 004°35'0 0.0
2019-Sep-20 07:59N 52°28' E 004°35'1 1.1
2019-Sep-20 07:30N 52°28' E 004°34'714.1
2019-Sep-20 07:00N 52°32' E 004°25'815.2
2019-Sep-20 06:30N 52°37' E 004°16'815.5
2019-Sep-20 06:00N 52°42' E 004°06'815.8
2019-Sep-20 05:28N 52°47' E 003°55'815.9
2019-Sep-20 04:59N 52°52' E 003°45'2415.7
2019-Sep-20 03:27N 53°08' E 003°14'1915.8
2019-Sep-20 02:15N 53°19' E 002°48'616.1
2019-Sep-20 01:50N 53°23' E 002°40'616.1
2019-Sep-20 01:29N 53°26' E 002°32'1216.2
2019-Sep-20 00:46N 53°33' E 002°16'916.5
2019-Sep-20 00:15N 53°37' E 002°03'616.8
2019-Sep-19 23:54N 53°40' E 001°55'716.8
2019-Sep-19 23:30N 53°42' E 001°45'916.5
2019-Sep-19 22:57N 53°49' E 001°33'918.8
2019-Sep-19 22:27N 53°55' E 001°21'819.0
2019-Sep-19 22:00N 54°01' E 001°11'918.7
2019-Sep-19 21:30N 54°06' E 000°58'918.9
2019-Sep-19 21:00N 54°11' E 000°44'1019.1
2019-Sep-19 20:28N 54°17' E 000°31'1019.2
2019-Sep-19 19:58N 54°23' E 000°17'1219.3
2019-Sep-19 19:21N 54°29' W 000°01'1019.3
2019-Sep-19 18:51N 54°34' W 000°15'3418.8
2019-Sep-19 17:04N 54°53' W 001°03'118.4
2019-Sep-19 17:00N 54°54' W 001°04'918.4
2019-Sep-19 16:30N 54°59' W 001°17'510.8
2019-Sep-19 16:00N 54°60' W 001°27'0 0.8
2019-Sep-19 15:30N 54°59' W 001°27'0 0.0
2019-Sep-19 14:55N 54°59' W 001°27'0 0.0
2019-Sep-19 14:25N 54°59' W 001°27'0 0.0
2019-Sep-19 13:55N 54°59' W 001°27'0 0.0
2019-Sep-19 13:25N 54°59' W 001°27'0 0.0
2019-Sep-19 12:55N 54°59' W 001°27'0 0.0
2019-Sep-19 12:28N 54°59' W 001°27'0 0.0
2019-Sep-19 11:58N 54°59' W 001°27'0 0.0
2019-Sep-19 11:28N 54°59' W 001°27'0 0.0
2019-Sep-19 10:58N 54°59' W 001°27'0 0.0
2019-Sep-19 10:28N 54°59' W 001°27'0 0.0
2019-Sep-19 09:58N 54°59' W 001°27'0 0.0
2019-Sep-19 09:28N 54°59' W 001°27'0 0.0
2019-Sep-19 08:58N 54°59' W 001°27'0 0.0
2019-Sep-19 08:28N 54°59' W 001°27'1 1.2
2019-Sep-19 08:00N 54°60' W 001°27'5 9.9
2019-Sep-19 07:31N 54°60' W 001°18'917.6
2019-Sep-19 07:01N 54°55' W 001°05'23516.1
2019-Sep-18 16:23N 52°37' E 004°17'615.6
2019-Sep-18 16:01N 52°33' E 004°24'714.8
2019-Sep-18 15:31N 52°28' E 004°33'1 2.5
2019-Sep-18 15:00N 52°28' E 004°35'0 0.0
2019-Sep-18 14:28N 52°28' E 004°35'0 0.0
2019-Sep-18 13:58N 52°28' E 004°35'0 0.0
2019-Sep-18 13:28N 52°28' E 004°35'0 0.0
2019-Sep-18 12:58N 52°28' E 004°35'0 0.0
2019-Sep-18 12:28N 52°28' E 004°35'0 0.0
2019-Sep-18 11:55N 52°28' E 004°35'0 0.0
2019-Sep-18 11:28N 52°28' E 004°35'0 0.0
2019-Sep-18 10:55N 52°28' E 004°35'0 0.0
2019-Sep-18 10:25N 52°28' E 004°35'0 0.0
2019-Sep-18 09:52N 52°28' E 004°35'0 0.0
2019-Sep-18 09:28N 52°28' E 004°35'0 0.0
2019-Sep-18 08:58N 52°28' E 004°35'0 0.0
2019-Sep-18 08:28N 52°28' E 004°35'0 0.0
2019-Sep-18 07:55N 52°28' E 004°35'0 0.3
2019-Sep-18 07:30N 52°28' E 004°35'5 9.7
2019-Sep-18 07:01N 52°30' E 004°28'815.5
2019-Sep-18 06:30N 52°35' E 004°19'815.6
2019-Sep-18 06:00N 52°41' E 004°09'22817.6
2019-Sep-17 17:05N 54°53' W 001°04'118.8
2019-Sep-17 17:00N 54°54' W 001°06'918.8
2019-Sep-17 16:31N 54°59' W 001°19'4 8.5
2019-Sep-17 16:00N 54°60' W 001°27'0 0.2
2019-Sep-17 15:30N 54°59' W 001°27'0 0.0
2019-Sep-17 15:00N 54°59' W 001°27'0 0.0
2019-Sep-17 14:27N 54°59' W 001°27'0 0.0
2019-Sep-17 14:00N 54°59' W 001°27'0 0.0
2019-Sep-17 13:24N 54°59' W 001°27'0 0.0
2019-Sep-17 12:51N 54°59' W 001°27'0 0.0
2019-Sep-17 12:21N 54°59' W 001°27'0 0.0
2019-Sep-17 11:54N 54°59' W 001°27'0 0.0
2019-Sep-17 11:24N 54°59' W 001°27'0 0.0
2019-Sep-17 10:54N 54°59' W 001°27'0 0.0
2019-Sep-17 10:24N 54°59' W 001°27'0 0.0
2019-Sep-17 09:54N 54°59' W 001°27'0 0.0
2019-Sep-17 09:21N 54°59' W 001°27'0 0.0
2019-Sep-17 08:57N 54°59' W 001°27'0 0.0
2019-Sep-17 08:21N 54°59' W 001°27'0 1.3
2019-Sep-17 08:00N 54°60' W 001°27'510.9
2019-Sep-17 07:30N 54°59' W 001°17'1018.9
2019-Sep-17 07:00N 54°54' W 001°04'20015.8
2019-Sep-16 18:22N 52°59' E 003°34'916.0
2019-Sep-16 17:49N 52°53' E 003°45'2516.2
2019-Sep-16 16:16N 52°36' E 004°17'416.5
2019-Sep-16 16:00N 52°34' E 004°22'816.1
2019-Sep-16 15:30N 52°28' E 004°32'2 3.9
2019-Sep-16 15:00N 52°28' E 004°35'0 0.0
2019-Sep-16 14:28N 52°28' E 004°35'0 0.0
2019-Sep-16 13:58N 52°28' E 004°35'0 0.0
2019-Sep-16 13:28N 52°28' E 004°35'0 0.0
2019-Sep-16 12:58N 52°28' E 004°35'0 0.0
2019-Sep-16 12:28N 52°28' E 004°35'0 0.0
2019-Sep-16 11:58N 52°28' E 004°35'0 0.0
2019-Sep-16 11:28N 52°28' E 004°35'0 0.0
2019-Sep-16 10:58N 52°28' E 004°35'0 0.0
2019-Sep-16 10:28N 52°28' E 004°35'0 0.0
2019-Sep-16 09:58N 52°28' E 004°35'0 0.0
2019-Sep-16 09:28N 52°28' E 004°35'0 0.0
2019-Sep-16 08:58N 52°28' E 004°35'0 0.0
2019-Sep-16 08:28N 52°28' E 004°35'0 0.0
2019-Sep-16 07:58N 52°28' E 004°35'0 0.3
2019-Sep-16 07:31N 52°28' E 004°35'4 8.9
2019-Sep-16 07:00N 52°29' E 004°28'815.4
2019-Sep-16 06:30N 52°35' E 004°19'815.4
2019-Sep-16 05:59N 52°40' E 004°09'915.6
2019-Sep-16 05:23N 52°46' E 003°58'22017.2
2019-Sep-15 16:36N 54°54' W 001°05'219.3
2019-Sep-15 16:30N 54°55' W 001°07'1019.5
2019-Sep-15 16:00N 54°60' W 001°22'3 6.2
2019-Sep-15 15:30N 54°59' W 001°27'0 0.0
2019-Sep-15 15:01N 54°59' W 001°27'0 0.0
2019-Sep-15 14:26N 54°59' W 001°27'0 0.0
2019-Sep-15 13:56N 54°59' W 001°27'0 0.0
2019-Sep-15 13:26N 54°59' W 001°27'0 0.0
2019-Sep-15 12:56N 54°59' W 001°27'0 0.0
2019-Sep-15 12:29N 54°59' W 001°27'0 0.0
2019-Sep-15 11:59N 54°59' W 001°27'0 0.0
2019-Sep-15 11:26N 54°59' W 001°27'0 0.0
2019-Sep-15 10:59N 54°59' W 001°27'0 0.0
2019-Sep-15 10:29N 54°59' W 001°27'0 0.0
2019-Sep-15 09:59N 54°59' W 001°27'0 0.0
2019-Sep-15 09:29N 54°59' W 001°27'0 0.0
2019-Sep-15 08:59N 54°59' W 001°27'0 0.0
2019-Sep-15 08:29N 54°59' W 001°27'0 0.6
2019-Sep-15 08:00N 54°60' W 001°27'510.2
2019-Sep-15 07:30N 54°59' W 001°18'917.6
2019-Sep-15 07:00N 54°55' W 001°05'12215.8
2019-Sep-14 23:15N 53°46' E 001°49'416.2
2019-Sep-14 22:59N 53°44' E 001°56'816.0
2019-Sep-14 22:30N 53°41' E 002°07'915.6
2019-Sep-14 21:57N 53°36' E 002°20'4315.2
2019-Sep-14 19:07N 53°08' E 003°15'915.7
2019-Sep-14 18:32N 53°03' E 003°27'916.1
2019-Sep-14 17:59N 52°57' E 003°38'1616.5
2019-Sep-14 17:03N 52°47' E 003°57'116.7
2019-Sep-14 17:00N 52°46' E 003°58'1216.8
2019-Sep-14 16:16N 52°38' E 004°13'416.9
2019-Sep-14 16:00N 52°35' E 004°19'816.6
2019-Sep-14 15:30N 52°30' E 004°29'4 8.2
2019-Sep-14 15:00N 52°28' E 004°35'0 0.0
2019-Sep-14 14:29N 52°28' E 004°35'0 0.0
2019-Sep-14 13:59N 52°28' E 004°35'0 0.0
2019-Sep-14 13:29N 52°28' E 004°35'0 0.0
2019-Sep-14 12:59N 52°28' E 004°35'0 0.0
2019-Sep-14 12:29N 52°28' E 004°35'0 0.0
2019-Sep-14 11:59N 52°28' E 004°35'0 0.0
2019-Sep-14 11:29N 52°28' E 004°35'0 0.0
2019-Sep-14 10:59N 52°28' E 004°35'0 0.0
2019-Sep-14 10:29N 52°28' E 004°35'0 0.0
2019-Sep-14 09:59N 52°28' E 004°35'0 0.0
2019-Sep-14 09:29N 52°28' E 004°35'0 0.0
2019-Sep-14 08:59N 52°28' E 004°35'0 0.0
2019-Sep-14 08:29N 52°28' E 004°35'0 0.0
2019-Sep-14 07:59N 52°28' E 004°35'0 0.3
2019-Sep-14 07:31N 52°28' E 004°35'713.8
2019-Sep-14 07:01N 52°31' E 004°25'917.4
2019-Sep-14 06:31N 52°37' E 004°15'917.1
2019-Sep-14 06:00N 52°40' E 004°02'5015.7
2019-Sep-14 02:49N 53°14' E 002°60'915.5
2019-Sep-14 02:14N 53°19' E 002°48'415.4
2019-Sep-14 01:58N 53°22' E 002°42'715.3
2019-Sep-14 01:30N 53°26' E 002°33'815.2
2019-Sep-14 01:00N 53°30' E 002°22'715.0
2019-Sep-14 00:31N 53°34' E 002°12'815.3
2019-Sep-13 23:59N 53°38' E 001°59'815.5
2019-Sep-13 23:28N 53°42' E 001°48'714.5
2019-Sep-13 23:00N 53°45' E 001°38'816.9
2019-Sep-13 22:30N 53°52' E 001°28'918.0
2019-Sep-13 22:01N 53°58' E 001°18'1118.0
2019-Sep-13 21:23N 54°05' E 001°03'1018.2
2019-Sep-13 20:50N 54°10' E 000°48'618.2
2019-Sep-13 20:29N 54°14' E 000°39'1218.2
2019-Sep-13 19:50N 54°20' E 000°22'618.5
2019-Sep-13 19:30N 54°24' E 000°13'5519.0
2019-Sep-13 16:38N 54°54' W 001°05'219.4
2019-Sep-13 16:30N 54°55' W 001°09'1019.3
2019-Sep-13 16:00N 55°01' W 001°23'3 5.3
2019-Sep-13 15:30N 54°59' W 001°27'0 0.0
2019-Sep-13 14:56N 54°59' W 001°27'0 0.0
2019-Sep-13 14:23N 54°59' W 001°27'0 0.0
2019-Sep-13 13:56N 54°59' W 001°27'0 0.0
2019-Sep-13 13:29N 54°59' W 001°27'0 0.0
2019-Sep-13 12:56N 54°59' W 001°27'0 0.0
2019-Sep-13 12:29N 54°59' W 001°27'0 0.0
2019-Sep-13 11:56N 54°59' W 001°27'0 0.0
2019-Sep-13 11:26N 54°59' W 001°27'0 0.0
2019-Sep-13 10:53N 54°59' W 001°27'0 0.0
2019-Sep-13 10:26N 54°59' W 001°27'0 0.0
2019-Sep-13 09:59N 54°59' W 001°27'0 0.0
2019-Sep-13 09:29N 54°59' W 001°27'0 0.0
2019-Sep-13 08:59N 54°59' W 001°27'0 0.0
2019-Sep-13 08:29N 54°59' W 001°27'0 0.1
2019-Sep-13 08:00N 54°59' W 001°27'4 7.3
2019-Sep-13 07:30N 55°01' W 001°21'918.6
2019-Sep-13 07:00N 54°56' W 001°08'9717.1
2019-Sep-13 01:18N 54°01' E 001°11'516.0
2019-Sep-13 01:01N 53°58' E 001°17'916.3
2019-Sep-13 00:29N 53°53' E 001°29'816.7
2019-Sep-13 00:00N 53°49' E 001°41'816.7
2019-Sep-12 23:31N 53°45' E 001°53'9415.2
2019-Sep-12 17:19N 52°47' E 003°57'1516.2
2019-Sep-12 16:22N 52°37' E 004°16'616.3
2019-Sep-12 16:00N 52°33' E 004°24'815.2
2019-Sep-12 15:30N 52°28' E 004°33'1 2.3
2019-Sep-12 15:00N 52°28' E 004°35'0 0.0
2019-Sep-12 14:29N 52°28' E 004°35'0 0.0
2019-Sep-12 13:59N 52°28' E 004°35'0 0.0
2019-Sep-12 13:29N 52°28' E 004°35'0 0.0
2019-Sep-12 12:59N 52°28' E 004°35'0 0.0
2019-Sep-12 12:29N 52°28' E 004°35'0 0.0
2019-Sep-12 11:59N 52°28' E 004°35'0 0.0
2019-Sep-12 11:29N 52°28' E 004°35'0 0.0
2019-Sep-12 10:59N 52°28' E 004°35'0 0.0
2019-Sep-12 10:29N 52°28' E 004°35'0 0.0
2019-Sep-12 09:59N 52°28' E 004°35'0 0.0
2019-Sep-12 09:29N 52°28' E 004°35'0 0.0
2019-Sep-12 08:59N 52°28' E 004°35'0 0.0
2019-Sep-12 08:29N 52°28' E 004°35'0 0.0
2019-Sep-12 07:59N 52°28' E 004°35'0 0.2
2019-Sep-12 07:30N 52°28' E 004°35'4 8.3
2019-Sep-12 07:00N 52°29' E 004°28'815.8
2019-Sep-12 06:30N 52°35' E 004°19'815.7
2019-Sep-12 06:00N 52°40' E 004°10'1416.1
2019-Sep-12 05:09N 52°49' E 003°52'515.7
2019-Sep-12 04:50N 52°52' E 003°46'1315.7
2019-Sep-12 04:01N 53°01' E 003°31'7716.1
2019-Sep-11 23:14N 53°43' E 001°42'417.6
2019-Sep-11 23:00N 53°45' E 001°37'917.5
2019-Sep-11 22:30N 53°52' E 001°27'917.8
2019-Sep-11 22:00N 53°59' E 001°17'9918.3
2019-Sep-11 16:35N 54°54' W 001°04'219.0
2019-Sep-11 16:30N 54°54' W 001°07'1019.1
2019-Sep-11 16:00N 54°60' W 001°21'4 7.4
2019-Sep-11 15:30N 54°59' W 001°27'0 0.0
2019-Sep-11 15:00N 54°59' W 001°27'0 0.0
2019-Sep-11 14:29N 54°59' W 001°27'0 0.0
2019-Sep-11 13:59N 54°59' W 001°27'0 0.0
2019-Sep-11 13:27N 54°59' W 001°27'0 0.0
2019-Sep-11 12:54N 54°59' W 001°27'0 0.0
2019-Sep-11 12:30N 54°59' W 001°27'0 0.0
2019-Sep-11 11:53N 54°59' W 001°27'0 0.0
2019-Sep-11 11:27N 54°59' W 001°27'0 0.0
2019-Sep-11 10:57N 54°59' W 001°27'0 0.0
2019-Sep-11 10:27N 54°59' W 001°27'0 0.0
2019-Sep-11 09:56N 54°59' W 001°27'0 0.0
2019-Sep-11 09:30N 54°59' W 001°27'0 0.0
2019-Sep-11 08:57N 54°59' W 001°27'0 0.0
2019-Sep-11 08:30N 54°59' W 001°27'0 0.5
2019-Sep-11 08:01N 54°60' W 001°27'4 8.9
2019-Sep-11 07:30N 55°00' W 001°19'817.0
2019-Sep-11 07:00N 54°55' W 001°07'9716.3
2019-Sep-11 01:02N 54°01' E 001°11'116.3
2019-Sep-11 01:00N 54°00' E 001°12'816.5
2019-Sep-11 00:30N 53°55' E 001°24'  
Track history (hours):
 
Tides and Currents Weather Stations Pressure Air Temp Water Temp Dewpoint Dewpoint Depression Visibility Wind Speed Wind Dir Waves Ship Positions

King of Scandinavia

Ship's website: http://www.dfds.co.uk/DSW/EN/OnBoard/na/KING.htm

Last reported at 2019-Sep-21 00:04 UTC. Time now 2019-Sep-21 00:49 UTC.
Position N 53°54' E 001°25'.

Length 166 m; beam 27.6 m; draft 6.2 m.

Type: Ship. MMSI: 220449000.

Date/timePositionNaut miles runAvg speedWind from/ knotsBaromVisibWave heightAir tempDewpointWater temp
2019-Sep-21 00:04N 53°54' E 001°25'315.9
2019-Sep-20 23:52N 53°52' E 001°30'615.7
2019-Sep-20 23:30N 53°49' E 001°37'1115.4
2019-Sep-20 22:47N 53°44' E 001°55'515.7
2019-Sep-20 22:28N 53°42' E 002°02'915.9
2019-Sep-20 21:54N 53°38' E 002°15'715.8
2019-Sep-20 21:28N 53°33' E 002°24'1316.3
2019-Sep-20 20:40N 53°25' E 002°41'516.8
2019-Sep-20 20:23N 53°22' E 002°47'717.0
2019-Sep-20 19:58N 53°17' E 002°56'1217.1
2019-Sep-20 19:14N 53°09' E 003°12'1317.3
2019-Sep-20 18:29N 53°01' E 003°29'817.0
2019-Sep-20 18:00N 52°56' E 003°40'1216.8
2019-Sep-20 17:18N 52°49' E 003°55'516.9
2019-Sep-20 17:00N 52°45' E 004°00'1216.9
2019-Sep-20 16:19N 52°37' E 004°14'516.6
2019-Sep-20 16:00N 52°34' E 004°21'816.3
2019-Sep-20 15:30N 52°29' E 004°31'3 5.2
2019-Sep-20 15:00N 52°28' E 004°35'0 0.0
2019-Sep-20 14:29N 52°28' E 004°35'0 0.0
2019-Sep-20 13:59N 52°28' E 004°35'0 0.0
2019-Sep-20 13:29N 52°28' E 004°35'0 0.0
2019-Sep-20 12:59N 52°28' E 004°35'0 0.0
2019-Sep-20 12:29N 52°28' E 004°35'0 0.0
2019-Sep-20 11:59N 52°28' E 004°35'0 0.0
2019-Sep-20 11:29N 52°28' E 004°35'0 0.0
2019-Sep-20 10:59N 52°28' E 004°35'0 0.0
2019-Sep-20 10:30N 52°28' E 004°35'0 0.0
2019-Sep-20 09:56N 52°28' E 004°35'0 0.0
2019-Sep-20 09:30N 52°28' E 004°35'0 0.0
2019-Sep-20 08:59N 52°28' E 004°35'0 0.0
2019-Sep-20 08:27N 52°28' E 004°35'0 0.0
2019-Sep-20 07:59N 52°28' E 004°35'1 1.1
2019-Sep-20 07:30N 52°28' E 004°34'714.1
2019-Sep-20 07:00N 52°32' E 004°25'815.2
2019-Sep-20 06:30N 52°37' E 004°16'815.5
2019-Sep-20 06:00N 52°42' E 004°06'815.8
2019-Sep-20 05:28N 52°47' E 003°55'815.9
2019-Sep-20 04:59N 52°52' E 003°45'2415.7
2019-Sep-20 03:27N 53°08' E 003°14'1915.8
2019-Sep-20 02:15N 53°19' E 002°48'616.1
2019-Sep-20 01:50N 53°23' E 002°40'616.1
2019-Sep-20 01:29N 53°26' E 002°32'1216.2
2019-Sep-20 00:46N 53°33' E 002°16'916.5
2019-Sep-20 00:15N 53°37' E 002°03'616.8
2019-Sep-19 23:54N 53°40' E 001°55'716.8
2019-Sep-19 23:30N 53°42' E 001°45'916.5
2019-Sep-19 22:57N 53°49' E 001°33'918.8
2019-Sep-19 22:27N 53°55' E 001°21'819.0
2019-Sep-19 22:00N 54°01' E 001°11'918.7
2019-Sep-19 21:30N 54°06' E 000°58'918.9
2019-Sep-19 21:00N 54°11' E 000°44'1019.1
2019-Sep-19 20:28N 54°17' E 000°31'1019.2
2019-Sep-19 19:58N 54°23' E 000°17'1219.3
2019-Sep-19 19:21N 54°29' W 000°01'1019.3
2019-Sep-19 18:51N 54°34' W 000°15'3418.8
2019-Sep-19 17:04N 54°53' W 001°03'118.4
2019-Sep-19 17:00N 54°54' W 001°04'918.4
2019-Sep-19 16:30N 54°59' W 001°17'510.8
2019-Sep-19 16:00N 54°60' W 001°27'0 0.8
2019-Sep-19 15:30N 54°59' W 001°27'0 0.0
2019-Sep-19 14:55N 54°59' W 001°27'0 0.0
2019-Sep-19 14:25N 54°59' W 001°27'0 0.0
2019-Sep-19 13:55N 54°59' W 001°27'0 0.0
2019-Sep-19 13:25N 54°59' W 001°27'0 0.0
2019-Sep-19 12:55N 54°59' W 001°27'0 0.0
2019-Sep-19 12:28N 54°59' W 001°27'0 0.0
2019-Sep-19 11:58N 54°59' W 001°27'0 0.0
2019-Sep-19 11:28N 54°59' W 001°27'0 0.0
2019-Sep-19 10:58N 54°59' W 001°27'0 0.0
2019-Sep-19 10:28N 54°59' W 001°27'0 0.0
2019-Sep-19 09:58N 54°59' W 001°27'0 0.0
2019-Sep-19 09:28N 54°59' W 001°27'0 0.0
2019-Sep-19 08:58N 54°59' W 001°27'0 0.0
2019-Sep-19 08:28N 54°59' W 001°27'1 1.2
2019-Sep-19 08:00N 54°60' W 001°27'5 9.9
2019-Sep-19 07:31N 54°60' W 001°18'917.6
2019-Sep-19 07:01N 54°55' W 001°05'23516.1
2019-Sep-18 16:23N 52°37' E 004°17'615.6
2019-Sep-18 16:01N 52°33' E 004°24'714.8
2019-Sep-18 15:31N 52°28' E 004°33'1 2.5
2019-Sep-18 15:00N 52°28' E 004°35'0 0.0
2019-Sep-18 14:28N 52°28' E 004°35'0 0.0
2019-Sep-18 13:58N 52°28' E 004°35'0 0.0
2019-Sep-18 13:28N 52°28' E 004°35'0 0.0
2019-Sep-18 12:58N 52°28' E 004°35'0 0.0
2019-Sep-18 12:28N 52°28' E 004°35'0 0.0
2019-Sep-18 11:55N 52°28' E 004°35'0 0.0
2019-Sep-18 11:28N 52°28' E 004°35'0 0.0
2019-Sep-18 10:55N 52°28' E 004°35'0 0.0
2019-Sep-18 10:25N 52°28' E 004°35'0 0.0
2019-Sep-18 09:52N 52°28' E 004°35'0 0.0
2019-Sep-18 09:28N 52°28' E 004°35'0 0.0
2019-Sep-18 08:58N 52°28' E 004°35'0 0.0
2019-Sep-18 08:28N 52°28' E 004°35'0 0.0
2019-Sep-18 07:55N 52°28' E 004°35'0 0.3
2019-Sep-18 07:30N 52°28' E 004°35'5 9.7
2019-Sep-18 07:01N 52°30' E 004°28'815.5
2019-Sep-18 06:30N 52°35' E 004°19'815.6
2019-Sep-18 06:00N 52°41' E 004°09'22817.6
2019-Sep-17 17:05N 54°53' W 001°04'118.8
2019-Sep-17 17:00N 54°54' W 001°06'918.8
2019-Sep-17 16:31N 54°59' W 001°19'4 8.5
2019-Sep-17 16:00N 54°60' W 001°27'0 0.2
2019-Sep-17 15:30N 54°59' W 001°27'0 0.0
2019-Sep-17 15:00N 54°59' W 001°27'0 0.0
2019-Sep-17 14:27N 54°59' W 001°27'0 0.0
2019-Sep-17 14:00N 54°59' W 001°27'0 0.0
2019-Sep-17 13:24N 54°59' W 001°27'0 0.0
2019-Sep-17 12:51N 54°59' W 001°27'0 0.0
2019-Sep-17 12:21N 54°59' W 001°27'0 0.0
2019-Sep-17 11:54N 54°59' W 001°27'0 0.0
2019-Sep-17 11:24N 54°59' W 001°27'0 0.0
2019-Sep-17 10:54N 54°59' W 001°27'0 0.0
2019-Sep-17 10:24N 54°59' W 001°27'0 0.0
2019-Sep-17 09:54N 54°59' W 001°27'0 0.0
2019-Sep-17 09:21N 54°59' W 001°27'0 0.0
2019-Sep-17 08:57N 54°59' W 001°27'0 0.0
2019-Sep-17 08:21N 54°59' W 001°27'0 1.3
2019-Sep-17 08:00N 54°60' W 001°27'510.9
2019-Sep-17 07:30N 54°59' W 001°17'1018.9
2019-Sep-17 07:00N 54°54' W 001°04'20015.8
2019-Sep-16 18:22N 52°59' E 003°34'916.0
2019-Sep-16 17:49N 52°53' E 003°45'2516.2
2019-Sep-16 16:16N 52°36' E 004°17'416.5
2019-Sep-16 16:00N 52°34' E 004°22'816.1
2019-Sep-16 15:30N 52°28' E 004°32'2 3.9
2019-Sep-16 15:00N 52°28' E 004°35'0 0.0
2019-Sep-16 14:28N 52°28' E 004°35'0 0.0
2019-Sep-16 13:58N 52°28' E 004°35'0 0.0
2019-Sep-16 13:28N 52°28' E 004°35'0 0.0
2019-Sep-16 12:58N 52°28' E 004°35'0 0.0
2019-Sep-16 12:28N 52°28' E 004°35'0 0.0
2019-Sep-16 11:58N 52°28' E 004°35'0 0.0
2019-Sep-16 11:28N 52°28' E 004°35'0 0.0
2019-Sep-16 10:58N 52°28' E 004°35'0 0.0
2019-Sep-16 10:28N 52°28' E 004°35'0 0.0
2019-Sep-16 09:58N 52°28' E 004°35'0 0.0
2019-Sep-16 09:28N 52°28' E 004°35'0 0.0
2019-Sep-16 08:58N 52°28' E 004°35'0 0.0
2019-Sep-16 08:28N 52°28' E 004°35'0 0.0
2019-Sep-16 07:58N 52°28' E 004°35'0 0.3
2019-Sep-16 07:31N 52°28' E 004°35'4 8.9
2019-Sep-16 07:00N 52°29' E 004°28'815.4
2019-Sep-16 06:30N 52°35' E 004°19'815.4
2019-Sep-16 05:59N 52°40' E 004°09'915.6
2019-Sep-16 05:23N 52°46' E 003°58'22017.2
2019-Sep-15 16:36N 54°54' W 001°05'219.3
2019-Sep-15 16:30N 54°55' W 001°07'1019.5
2019-Sep-15 16:00N 54°60' W 001°22'3 6.2
2019-Sep-15 15:30N 54°59' W 001°27'0 0.0
2019-Sep-15 15:01N 54°59' W 001°27'0 0.0
2019-Sep-15 14:26N 54°59' W 001°27'0 0.0
2019-Sep-15 13:56N 54°59' W 001°27'0 0.0
2019-Sep-15 13:26N 54°59' W 001°27'0 0.0
2019-Sep-15 12:56N 54°59' W 001°27'0 0.0
2019-Sep-15 12:29N 54°59' W 001°27'0 0.0
2019-Sep-15 11:59N 54°59' W 001°27'0 0.0
2019-Sep-15 11:26N 54°59' W 001°27'0 0.0
2019-Sep-15 10:59N 54°59' W 001°27'0 0.0
2019-Sep-15 10:29N 54°59' W 001°27'0 0.0
2019-Sep-15 09:59N 54°59' W 001°27'0 0.0
2019-Sep-15 09:29N 54°59' W 001°27'0 0.0
2019-Sep-15 08:59N 54°59' W 001°27'0 0.0
2019-Sep-15 08:29N 54°59' W 001°27'0 0.6
2019-Sep-15 08:00N 54°60' W 001°27'510.2
2019-Sep-15 07:30N 54°59' W 001°18'917.6
2019-Sep-15 07:00N 54°55' W 001°05'12215.8
2019-Sep-14 23:15N 53°46' E 001°49'416.2
2019-Sep-14 22:59N 53°44' E 001°56'816.0
2019-Sep-14 22:30N 53°41' E 002°07'915.6
2019-Sep-14 21:57N 53°36' E 002°20'4315.2
2019-Sep-14 19:07N 53°08' E 003°15'915.7
2019-Sep-14 18:32N 53°03' E 003°27'916.1
2019-Sep-14 17:59N 52°57' E 003°38'1616.5
2019-Sep-14 17:03N 52°47' E 003°57'116.7
2019-Sep-14 17:00N 52°46' E 003°58'1216.8
2019-Sep-14 16:16N 52°38' E 004°13'416.9
2019-Sep-14 16:00N 52°35' E 004°19'816.6
2019-Sep-14 15:30N 52°30' E 004°29'4 8.2
2019-Sep-14 15:00N 52°28' E 004°35'0 0.0
2019-Sep-14 14:29N 52°28' E 004°35'0 0.0
2019-Sep-14 13:59N 52°28' E 004°35'0 0.0
2019-Sep-14 13:29N 52°28' E 004°35'0 0.0
2019-Sep-14 12:59N 52°28' E 004°35'0 0.0
2019-Sep-14 12:29N 52°28' E 004°35'0 0.0
2019-Sep-14 11:59N 52°28' E 004°35'0 0.0
2019-Sep-14 11:29N 52°28' E 004°35'0 0.0
2019-Sep-14 10:59N 52°28' E 004°35'0 0.0
2019-Sep-14 10:29N 52°28' E 004°35'0 0.0
2019-Sep-14 09:59N 52°28' E 004°35'0 0.0
2019-Sep-14 09:29N 52°28' E 004°35'0 0.0
2019-Sep-14 08:59N 52°28' E 004°35'0 0.0
2019-Sep-14 08:29N 52°28' E 004°35'0 0.0
2019-Sep-14 07:59N 52°28' E 004°35'0 0.3
2019-Sep-14 07:31N 52°28' E 004°35'713.8
2019-Sep-14 07:01N 52°31' E 004°25'917.4
2019-Sep-14 06:31N 52°37' E 004°15'917.1
2019-Sep-14 06:00N 52°40' E 004°02'5015.7
2019-Sep-14 02:49N 53°14' E 002°60'915.5
2019-Sep-14 02:14N 53°19' E 002°48'415.4
2019-Sep-14 01:58N 53°22' E 002°42'715.3
2019-Sep-14 01:30N 53°26' E 002°33'815.2
2019-Sep-14 01:00N 53°30' E 002°22'715.0
2019-Sep-14 00:31N 53°34' E 002°12'815.3
2019-Sep-13 23:59N 53°38' E 001°59'815.5
2019-Sep-13 23:28N 53°42' E 001°48'714.5
2019-Sep-13 23:00N 53°45' E 001°38'816.9
2019-Sep-13 22:30N 53°52' E 001°28'918.0
2019-Sep-13 22:01N 53°58' E 001°18'1118.0
2019-Sep-13 21:23N 54°05' E 001°03'1018.2
2019-Sep-13 20:50N 54°10' E 000°48'618.2
2019-Sep-13 20:29N 54°14' E 000°39'1218.2
2019-Sep-13 19:50N 54°20' E 000°22'618.5
2019-Sep-13 19:30N 54°24' E 000°13'5519.0
2019-Sep-13 16:38N 54°54' W 001°05'219.4
2019-Sep-13 16:30N 54°55' W 001°09'1019.3
2019-Sep-13 16:00N 55°01' W 001°23'3 5.3
2019-Sep-13 15:30N 54°59' W 001°27'0 0.0
2019-Sep-13 14:56N 54°59' W 001°27'0 0.0
2019-Sep-13 14:23N 54°59' W 001°27'0 0.0
2019-Sep-13 13:56N 54°59' W 001°27'0 0.0
2019-Sep-13 13:29N 54°59' W 001°27'0 0.0
2019-Sep-13 12:56N 54°59' W 001°27'0 0.0
2019-Sep-13 12:29N 54°59' W 001°27'0 0.0
2019-Sep-13 11:56N 54°59' W 001°27'0 0.0
2019-Sep-13 11:26N 54°59' W 001°27'0 0.0
2019-Sep-13 10:53N 54°59' W 001°27'0 0.0
2019-Sep-13 10:26N 54°59' W 001°27'0 0.0
2019-Sep-13 09:59N 54°59' W 001°27'0 0.0
2019-Sep-13 09:29N 54°59' W 001°27'0 0.0
2019-Sep-13 08:59N 54°59' W 001°27'0 0.0
2019-Sep-13 08:29N 54°59' W 001°27'0 0.1
2019-Sep-13 08:00N 54°59' W 001°27'4 7.3
2019-Sep-13 07:30N 55°01' W 001°21'918.6
2019-Sep-13 07:00N 54°56' W 001°08'9717.1
2019-Sep-13 01:18N 54°01' E 001°11'516.0
2019-Sep-13 01:01N 53°58' E 001°17'916.3
2019-Sep-13 00:29N 53°53' E 001°29'816.7
2019-Sep-13 00:00N 53°49' E 001°41'816.7
2019-Sep-12 23:31N 53°45' E 001°53'9415.2
2019-Sep-12 17:19N 52°47' E 003°57'1516.2
2019-Sep-12 16:22N 52°37' E 004°16'616.3
2019-Sep-12 16:00N 52°33' E 004°24'815.2
2019-Sep-12 15:30N 52°28' E 004°33'1 2.3
2019-Sep-12 15:00N 52°28' E 004°35'0 0.0
2019-Sep-12 14:29N 52°28' E 004°35'0 0.0
2019-Sep-12 13:59N 52°28' E 004°35'0 0.0
2019-Sep-12 13:29N 52°28' E 004°35'0 0.0
2019-Sep-12 12:59N 52°28' E 004°35'0 0.0
2019-Sep-12 12:29N 52°28' E 004°35'0 0.0
2019-Sep-12 11:59N 52°28' E 004°35'0 0.0
2019-Sep-12 11:29N 52°28' E 004°35'0 0.0
2019-Sep-12 10:59N 52°28' E 004°35'0 0.0
2019-Sep-12 10:29N 52°28' E 004°35'0 0.0
2019-Sep-12 09:59N 52°28' E 004°35'0 0.0
2019-Sep-12 09:29N 52°28' E 004°35'0 0.0
2019-Sep-12 08:59N 52°28' E 004°35'0 0.0
2019-Sep-12 08:29N 52°28' E 004°35'0 0.0
2019-Sep-12 07:59N 52°28' E 004°35'0 0.2
2019-Sep-12 07:30N 52°28' E 004°35'4 8.3
2019-Sep-12 07:00N 52°29' E 004°28'815.8
2019-Sep-12 06:30N 52°35' E 004°19'815.7
2019-Sep-12 06:00N 52°40' E 004°10'1416.1
2019-Sep-12 05:09N 52°49' E 003°52'515.7
2019-Sep-12 04:50N 52°52' E 003°46'1315.7
2019-Sep-12 04:01N 53°01' E 003°31'7716.1
2019-Sep-11 23:14N 53°43' E 001°42'417.6
2019-Sep-11 23:00N 53°45' E 001°37'917.5
2019-Sep-11 22:30N 53°52' E 001°27'917.8
2019-Sep-11 22:00N 53°59' E 001°17'9918.3
2019-Sep-11 16:35N 54°54' W 001°04'219.0
2019-Sep-11 16:30N 54°54' W 001°07'1019.1
2019-Sep-11 16:00N 54°60' W 001°21'4 7.4
2019-Sep-11 15:30N 54°59' W 001°27'0 0.0
2019-Sep-11 15:00N 54°59' W 001°27'0 0.0
2019-Sep-11 14:29N 54°59' W 001°27'0 0.0
2019-Sep-11 13:59N 54°59' W 001°27'0 0.0
2019-Sep-11 13:27N 54°59' W 001°27'0 0.0
2019-Sep-11 12:54N 54°59' W 001°27'0 0.0
2019-Sep-11 12:30N 54°59' W 001°27'0 0.0
2019-Sep-11 11:53N 54°59' W 001°27'0 0.0
2019-Sep-11 11:27N 54°59' W 001°27'0 0.0
2019-Sep-11 10:57N 54°59' W 001°27'0 0.0
2019-Sep-11 10:27N 54°59' W 001°27'0 0.0
2019-Sep-11 09:56N 54°59' W 001°27'0 0.0
2019-Sep-11 09:30N 54°59' W 001°27'0 0.0
2019-Sep-11 08:57N 54°59' W 001°27'0 0.0
2019-Sep-11 08:30N 54°59' W 001°27'0 0.5
2019-Sep-11 08:01N 54°60' W 001°27'4 8.9
2019-Sep-11 07:30N 55°00' W 001°19'817.0
2019-Sep-11 07:00N 54°55' W 001°07'9716.3
2019-Sep-11 01:02N 54°01' E 001°11'116.3
2019-Sep-11 01:00N 54°00' E 001°12'816.5
2019-Sep-11 00:30N 53°55' E 001°24'  

Dump ship's entire track history